createdAt,value
2019-02-02T00:02:48.577Z,941.1
2019-02-02T00:12:51.990Z,941.3
2019-02-02T00:22:55.415Z,941.3
2019-02-02T00:32:58.866Z,934.1
2019-02-02T00:43:02.311Z,934.2
2019-02-02T00:53:05.720Z,934.2
2019-02-02T01:03:09.163Z,941.7
2019-02-02T01:13:12.570Z,941.6
2019-02-02T01:23:15.978Z,934.5
2019-02-02T01:33:19.411Z,941.8
2019-02-02T01:43:22.804Z,934.4
2019-02-02T01:53:26.208Z,934.7
2019-02-02T02:03:29.615Z,934.4
2019-02-02T02:13:33.015Z,934.4
2019-02-02T02:23:36.439Z,934.4
2019-02-02T02:33:39.865Z,934.6
2019-02-02T02:43:43.291Z,934.7
2019-02-02T02:53:46.735Z,934.5
2019-02-02T03:03:50.200Z,935
2019-02-02T03:13:53.607Z,935.1
2019-02-02T03:23:57.033Z,935.1
2019-02-02T03:34:00.452Z,935.2
2019-02-02T03:44:03.877Z,935.3
2019-02-02T03:54:09.605Z,935.2
2019-02-02T04:04:13.011Z,935.2
2019-02-02T04:14:16.401Z,935.4
2019-02-02T04:24:19.810Z,935.2
2019-02-02T04:34:23.245Z,935.4
2019-02-02T04:44:26.681Z,935.6
2019-02-02T04:54:30.131Z,935.7
2019-02-02T05:04:33.576Z,935.8
2019-02-02T05:14:37.000Z,936
2019-02-02T05:24:40.376Z,936
2019-02-02T05:34:44.818Z,936
2019-02-02T05:44:48.255Z,936.1
2019-02-02T05:54:51.684Z,936.2
2019-02-02T06:04:55.094Z,943.5
2019-02-02T06:14:58.492Z,936.2
2019-02-02T06:25:01.907Z,936.4
2019-02-02T06:35:05.526Z,943.9
2019-02-02T06:45:08.956Z,936.6
2019-02-02T06:55:12.391Z,944
2019-02-02T07:05:15.835Z,944.2
2019-02-02T07:15:19.266Z,944.4
2019-02-02T07:25:22.699Z,937.4
2019-02-02T07:35:26.133Z,944.7
2019-02-02T07:45:29.529Z,944.8
2019-02-02T07:55:32.951Z,944.9
2019-02-02T08:05:36.396Z,945.2
2019-02-02T08:15:39.800Z,945.2
2019-02-02T08:25:43.233Z,945.5
2019-02-02T08:35:46.710Z,945.4
2019-02-02T08:45:50.158Z,945.6
2019-02-02T08:55:53.705Z,945.8
2019-02-02T09:05:57.176Z,945.8
2019-02-02T09:16:00.596Z,946.1
2019-02-02T09:26:04.035Z,946.4
2019-02-02T09:36:07.431Z,946.3
2019-02-02T09:46:10.842Z,946.4
2019-02-02T09:56:14.288Z,946.2
2019-02-02T10:06:17.702Z,946.4
2019-02-02T10:16:21.134Z,946.4
2019-02-02T10:26:24.566Z,946
2019-02-02T10:36:27.967Z,946.2
2019-02-02T10:46:31.516Z,945.6
2019-02-02T10:56:34.963Z,945.7
2019-02-02T11:06:38.645Z,945.5
2019-02-02T11:16:42.390Z,945.9
2019-02-02T11:26:46.033Z,945.3
2019-02-02T11:36:49.587Z,945.1
2019-02-02T11:46:53.008Z,945.3
2019-02-02T11:56:56.442Z,945.1
2019-02-02T12:06:59.892Z,944.8
2019-02-02T12:17:03.301Z,944.7
2019-02-02T12:27:06.746Z,944.9
2019-02-02T12:37:11.192Z,945.1
2019-02-02T12:47:14.619Z,945.5
2019-02-02T12:57:18.070Z,945.7
2019-02-02T13:07:21.499Z,946.1
2019-02-02T13:17:24.939Z,945.5
2019-02-02T13:27:28.389Z,945.5
2019-02-02T13:37:31.812Z,945.1
2019-02-02T13:47:35.211Z,945.2
2019-02-02T13:57:38.601Z,945.2
2019-02-02T14:07:42.037Z,945.2
2019-02-02T14:17:45.470Z,945.1
2019-02-02T14:27:48.922Z,945.3
2019-02-02T14:37:52.365Z,945.9
2019-02-02T14:47:56.826Z,945.9
2019-02-02T14:58:00.288Z,946.2
2019-02-02T15:08:03.717Z,946.1
2019-02-02T15:18:07.133Z,946.4
2019-02-02T15:28:10.589Z,946.2
2019-02-02T15:38:14.002Z,946.4
2019-02-02T15:48:17.557Z,946.8
2019-02-02T15:58:21.017Z,947.1
2019-02-02T16:08:24.449Z,947.1
2019-02-02T16:18:27.914Z,947.7
2019-02-02T16:28:31.376Z,947.6
2019-02-02T16:38:34.766Z,947.8
2019-02-02T16:48:38.180Z,947.8
2019-02-02T16:58:41.621Z,947.8
2019-02-02T17:08:44.997Z,948.1
2019-02-02T17:18:48.432Z,948.5
2019-02-02T17:28:51.876Z,948.7
2019-02-02T17:38:55.311Z,948.9
2019-02-02T17:48:58.724Z,949
2019-02-02T17:59:02.292Z,949.1
2019-02-02T18:09:05.790Z,949.4
2019-02-02T18:19:09.312Z,949.3
2019-02-02T18:29:12.735Z,949.3
2019-02-02T18:39:16.167Z,949.3
2019-02-02T18:49:19.633Z,949.8
2019-02-02T18:59:23.032Z,949.4
2019-02-02T19:09:26.493Z,949.7
2019-02-02T19:19:29.896Z,949.8
2019-02-02T19:39:41.528Z,950.2
2019-02-02T19:49:44.968Z,950.6
2019-02-02T19:59:48.380Z,950.8
2019-02-02T20:09:51.808Z,950.9
2019-02-02T20:19:55.228Z,950.7
2019-02-02T20:29:58.655Z,950.8
2019-02-02T20:40:02.092Z,950.9
2019-02-02T20:50:05.559Z,950.8
2019-02-02T21:00:09.018Z,950.9
2019-02-02T21:10:12.485Z,951.1
2019-02-02T21:20:15.954Z,951
2019-02-02T21:30:19.424Z,951
2019-02-02T21:40:22.901Z,951.1
2019-02-02T21:50:26.348Z,951.1
2019-02-02T22:00:29.810Z,951.3
2019-02-02T22:10:33.285Z,951.3
2019-02-02T22:20:36.701Z,951.7
2019-02-02T22:30:40.186Z,951.5
2019-02-02T22:40:43.669Z,951.5
2019-02-02T22:50:47.124Z,951.7
2019-02-02T23:00:50.686Z,951.7
2019-02-02T23:10:54.098Z,951.5
2019-02-02T23:20:58.221Z,951.5
2019-02-02T23:31:01.924Z,951.7
2019-02-02T23:41:05.406Z,951.8
2019-02-02T23:51:08.821Z,951.8
